createdAt,value
2019-01-04T00:04:37.898Z,99983.24
2019-01-04T00:07:09.915Z,99982.65
2019-01-04T00:09:41.891Z,99980.83
2019-01-04T00:12:13.903Z,99970.77
2019-01-04T00:14:45.893Z,99972.19
2019-01-04T00:17:17.915Z,99959.05
2019-01-04T00:19:49.949Z,99964.16
2019-01-04T00:22:21.918Z,99959.84
2019-01-04T00:24:53.927Z,99960.33
2019-01-04T00:27:25.944Z,99967.88
2019-01-04T00:29:57.982Z,99958.95
2019-01-04T00:32:29.955Z,99965.84
2019-01-04T00:35:01.944Z,99973.55
2019-01-04T00:37:33.900Z,99979.27
2019-01-04T00:40:06.767Z,99983.28
2019-01-04T00:42:38.753Z,99988.17
2019-01-04T00:45:10.772Z,99988.05
2019-01-04T00:47:42.766Z,99982.88
2019-01-04T00:50:14.761Z,99983.98
2019-01-04T00:52:46.754Z,99984.30
2019-01-04T00:55:57.739Z,99983.98
2019-01-04T00:59:08.700Z,99978.62
2019-01-04T01:02:19.590Z,99975.58
2019-01-04T01:05:30.502Z,99981.75
2019-01-04T01:08:41.408Z,99982.80
2019-01-04T01:11:52.316Z,99981.28
2019-01-04T01:15:03.226Z,99979.84
2019-01-04T01:18:14.153Z,99979.88
2019-01-04T01:21:12.332Z,99974.48
2019-01-04T01:24:23.223Z,99968.23
2019-01-04T01:27:29.496Z,99969.08
2019-01-04T01:30:40.414Z,99969.26
2019-01-04T01:33:51.284Z,99966.92
2019-01-04T01:37:12.860Z,99964.78
2019-01-04T01:40:23.773Z,99959.80
2019-01-04T01:43:34.668Z,99962.52
2019-01-04T01:46:45.575Z,99951.00
2019-01-04T01:49:56.435Z,99943.08
2019-01-04T01:52:32.598Z,99931.81
2019-01-04T01:55:04.609Z,99932.19
2019-01-04T01:57:36.617Z,99932.66
2019-01-04T02:00:08.791Z,99933.06
2019-01-04T02:02:40.803Z,99933.76
2019-01-04T02:05:12.749Z,99942.73
2019-01-04T02:07:44.760Z,99941.14
2019-01-04T02:10:16.792Z,99940.94
2019-01-04T02:12:48.821Z,99944.88
2019-01-04T02:15:20.771Z,99944.83
2019-01-04T02:17:52.818Z,99946.47
2019-01-04T02:20:24.835Z,99952.26
2019-01-04T02:22:56.813Z,99958.58
2019-01-04T02:25:28.802Z,99963.47
2019-01-04T02:28:00.836Z,99959.53
2019-01-04T02:30:32.823Z,99965.11
2019-01-04T02:33:04.832Z,99972.84
2019-01-04T02:35:36.802Z,99970.89
2019-01-04T02:38:08.806Z,99970.91
2019-01-04T02:40:40.811Z,99971.45
2019-01-04T02:43:12.782Z,99970.39
2019-01-04T02:45:44.770Z,99972.02
2019-01-04T02:48:16.739Z,99966.25
2019-01-04T02:50:48.726Z,99972.38
2019-01-04T02:53:20.702Z,99968.77
2019-01-04T02:55:52.681Z,99959.80
2019-01-04T02:58:24.639Z,99964.47
2019-01-04T03:00:56.623Z,99963.00
2019-01-04T03:03:28.587Z,99968.05
2019-01-04T03:06:00.579Z,99969.16
2019-01-04T03:08:32.535Z,99966.11
2019-01-04T03:11:04.511Z,99959.30
2019-01-04T03:13:36.503Z,99955.13
2019-01-04T03:16:08.494Z,99955.13
2019-01-04T03:18:40.459Z,99952.41
2019-01-04T03:21:12.462Z,99947.57
2019-01-04T03:23:44.419Z,99938.39
2019-01-04T03:26:16.412Z,99950.81
2019-01-04T03:28:48.403Z,99947.95
2019-01-04T03:31:20.386Z,99953.89
2019-01-04T03:33:52.371Z,99953.91
2019-01-04T03:36:24.367Z,99952.63
2019-01-04T03:38:56.356Z,99951.20
2019-01-04T03:41:28.349Z,99957.31
2019-01-04T03:44:00.296Z,99962.92
2019-01-04T03:46:32.282Z,99968.13
2019-01-04T03:49:04.246Z,99966.72
2019-01-04T03:51:36.234Z,99972.81
2019-01-04T03:54:08.201Z,99964.56
2019-01-04T03:56:40.187Z,99961.30
2019-01-04T03:59:12.180Z,99955.00
2019-01-04T04:01:44.153Z,99958.95
2019-01-04T04:04:16.149Z,99949.59
2019-01-04T04:06:48.135Z,99943.27
2019-01-04T04:09:20.144Z,99942.75
2019-01-04T04:11:52.108Z,99946.53
2019-01-04T04:14:24.930Z,99935.19
2019-01-04T04:16:56.918Z,99935.70
2019-01-04T04:19:28.894Z,99936.59
2019-01-04T04:22:00.882Z,99935.50
2019-01-04T04:24:32.869Z,99937.48
2019-01-04T04:27:04.845Z,99936.95
2019-01-04T04:29:36.835Z,99933.86
2019-01-04T04:32:08.803Z,99933.17
2019-01-04T04:34:40.787Z,99928.28
2019-01-04T04:37:12.784Z,99925.61
2019-01-04T04:39:44.765Z,99925.04
2019-01-04T04:42:16.725Z,99923.02
2019-01-04T04:44:48.724Z,99923.47
2019-01-04T04:47:20.679Z,99920.09
2019-01-04T04:49:52.657Z,99922.38
2019-01-04T04:52:24.619Z,99923.09
2019-01-04T04:54:56.676Z,99913.54
2019-01-04T04:57:28.636Z,99917.92
2019-01-04T05:00:00.632Z,99924.03
2019-01-04T05:02:32.609Z,99925.48
2019-01-04T05:05:04.721Z,99932.29
2019-01-04T05:07:36.663Z,99940.92
2019-01-04T05:10:08.655Z,99937.14
2019-01-04T05:12:40.609Z,99941.66
2019-01-04T05:15:12.613Z,99946.34
2019-01-04T05:17:44.620Z,99944.70
2019-01-04T05:20:16.620Z,99948.13
2019-01-04T05:22:48.680Z,99949.59
2019-01-04T05:25:20.664Z,99947.43
2019-01-04T05:27:52.635Z,99948.69
2019-01-04T05:30:24.621Z,99953.16
2019-01-04T05:32:56.583Z,99946.53
2019-01-04T05:35:28.560Z,99954.63
2019-01-04T05:38:00.552Z,99956.63
2019-01-04T05:40:32.552Z,99957.03
2019-01-04T05:43:04.519Z,99948.70
2019-01-04T05:45:36.499Z,99949.61
2019-01-04T05:48:08.480Z,99945.88
2019-01-04T05:50:40.437Z,99949.30
2019-01-04T05:53:12.422Z,99949.81
2019-01-04T05:55:44.370Z,99946.72
2019-01-04T05:58:16.353Z,99944.20
2019-01-04T06:00:48.327Z,99951.61
2019-01-04T06:03:20.318Z,99943.51
2019-01-04T06:05:52.273Z,99940.42
2019-01-04T06:08:24.279Z,99944.77
2019-01-04T06:10:56.244Z,99935.94
2019-01-04T06:13:28.230Z,99935.22
2019-01-04T06:16:00.195Z,99931.80
2019-01-04T06:18:32.195Z,99941.36
2019-01-04T06:21:04.243Z,99943.73
2019-01-04T06:23:36.250Z,99946.03
2019-01-04T06:26:08.204Z,99951.61
2019-01-04T06:28:40.242Z,99945.81
2019-01-04T06:31:12.210Z,99947.27
2019-01-04T06:33:44.243Z,99958.95
2019-01-04T06:36:16.220Z,99953.95
2019-01-04T06:38:48.208Z,99941.34
2019-01-04T06:41:20.167Z,99935.38
2019-01-04T06:43:52.209Z,99939.36
2019-01-04T06:46:24.227Z,99939.00
2019-01-04T06:48:56.212Z,99943.82
2019-01-04T06:51:28.292Z,99951.73
2019-01-04T06:54:00.342Z,99960.55
2019-01-04T06:56:32.303Z,99959.28
2019-01-04T06:59:04.346Z,99965.95
2019-01-04T07:01:36.320Z,99966.70
2019-01-04T07:04:08.353Z,99962.34
2019-01-04T07:06:40.360Z,99965.98
2019-01-04T07:09:12.391Z,99974.64
2019-01-04T07:11:44.377Z,99965.25
2019-01-04T07:14:16.359Z,99965.47
2019-01-04T07:16:48.508Z,99971.39
2019-01-04T07:19:20.507Z,99975.34
2019-01-04T07:21:52.546Z,99980.43
2019-01-04T07:24:24.534Z,99977.55
2019-01-04T07:26:56.587Z,99984.07
2019-01-04T07:29:28.571Z,99991.06
2019-01-04T07:32:00.675Z,99996.67
2019-01-04T07:34:32.667Z,99992.70
2019-01-04T07:37:04.649Z,99995.95
2019-01-04T07:39:36.763Z,99997.73
2019-01-04T07:42:08.790Z,99999.72
2019-01-04T07:44:40.780Z,100002.48
2019-01-04T07:47:12.765Z,99999.75
2019-01-04T07:49:44.775Z,100001.44
2019-01-04T07:52:17.297Z,99998.70
2019-01-04T07:54:49.400Z,100002.52
2019-01-04T07:57:21.383Z,99998.34
2019-01-04T07:59:53.385Z,99999.73
2019-01-04T08:02:45.416Z,100000.12
2019-01-04T08:05:21.767Z,99999.95
2019-01-04T08:07:53.830Z,100006.77
2019-01-04T08:10:25.840Z,100004.05
2019-01-04T08:12:57.860Z,100010.73
2019-01-04T08:15:29.888Z,100005.52
2019-01-04T08:18:01.867Z,100000.66
2019-01-04T08:20:33.876Z,99999.23
2019-01-04T08:23:05.877Z,99992.64
2019-01-04T08:25:37.860Z,99995.23
2019-01-04T08:28:09.834Z,99999.11
2019-01-04T08:30:41.796Z,99991.53
2019-01-04T08:33:13.764Z,99999.55
2019-01-04T08:35:45.777Z,99989.62
2019-01-04T08:38:17.720Z,99991.52
2019-01-04T08:40:49.724Z,99993.87
2019-01-04T08:43:21.734Z,99999.45
2019-01-04T08:45:53.717Z,100001.44
2019-01-04T08:48:25.679Z,100002.73
2019-01-04T08:50:57.677Z,100004.88
2019-01-04T08:53:54.787Z,100009.05
2019-01-04T08:56:28.786Z,100016.67
2019-01-04T08:59:00.751Z,100011.81
2019-01-04T09:01:32.748Z,100015.28
2019-01-04T09:04:04.714Z,100020.33
2019-01-04T09:06:36.749Z,100027.17
2019-01-04T09:09:08.732Z,100016.18
2019-01-04T09:11:40.716Z,100015.81
2019-01-04T09:14:12.706Z,100020.84
2019-01-04T09:16:44.755Z,100031.62
2019-01-04T09:19:16.747Z,100026.78
2019-01-04T09:21:48.746Z,100028.73
2019-01-04T09:24:20.735Z,100027.52
2019-01-04T09:26:52.879Z,100026.03
2019-01-04T09:29:24.845Z,100015.79
2019-01-04T09:31:56.855Z,100012.41
2019-01-04T09:34:28.866Z,100009.95
2019-01-04T09:37:00.872Z,100004.92
2019-01-04T09:39:32.886Z,99999.56
2019-01-04T09:42:10.388Z,100006.63
2019-01-04T09:44:43.418Z,100005.72
2019-01-04T09:47:15.438Z,99999.98
2019-01-04T09:49:47.442Z,100001.05
2019-01-04T09:52:19.470Z,99994.21
2019-01-04T09:54:51.575Z,99989.74
2019-01-04T09:57:23.834Z,99989.05
2019-01-04T09:59:55.832Z,99986.16
2019-01-04T10:02:27.869Z,99983.11
2019-01-04T10:04:59.872Z,99980.63
2019-01-04T10:07:31.885Z,99978.79
2019-01-04T10:10:05.199Z,99978.79
2019-01-04T10:12:38.560Z,99977.89
2019-01-04T10:15:15.327Z,99969.91
2019-01-04T10:17:47.361Z,99969.95
2019-01-04T10:20:19.417Z,99964.70
2019-01-04T10:22:51.460Z,99959.48
2019-01-04T10:25:23.695Z,99953.00
2019-01-04T10:27:55.862Z,99955.69
2019-01-04T10:30:27.907Z,99943.23
2019-01-04T10:32:59.922Z,99938.22
2019-01-04T10:35:32.036Z,99932.80
2019-01-04T10:38:04.128Z,99930.80
2019-01-04T10:40:36.144Z,99922.70
2019-01-04T10:43:08.151Z,99925.59
2019-01-04T10:45:40.384Z,99929.91
2019-01-04T10:48:12.408Z,99925.05
2019-01-04T10:50:44.412Z,99912.61
2019-01-04T10:53:16.729Z,99921.62
2019-01-04T10:55:48.750Z,99925.95
2019-01-04T10:58:20.730Z,99921.25
2019-01-04T11:00:52.779Z,99926.68
2019-01-04T11:03:24.753Z,99927.21
2019-01-04T11:05:56.756Z,99927.57
2019-01-04T11:08:28.724Z,99921.99
2019-01-04T11:11:00.718Z,99915.13
2019-01-04T11:13:32.801Z,99908.98
2019-01-04T11:16:04.818Z,99906.10
2019-01-04T11:18:36.885Z,99904.31
2019-01-04T11:21:11.273Z,99901.58
2019-01-04T11:24:31.059Z,99903.39
2019-01-04T11:27:12.788Z,99903.02
2019-01-04T11:30:35.816Z,99905.91
2019-01-04T11:33:20.662Z,99899.94
2019-01-04T11:36:22.263Z,99889.30
2019-01-04T11:39:34.589Z,99882.62
2019-01-04T11:42:42.589Z,99872.52
2019-01-04T11:45:49.329Z,99872.91
2019-01-04T11:49:08.824Z,99861.91
2019-01-04T11:52:30.972Z,99859.73
2019-01-04T11:54:59.087Z,99871.11
2019-01-04T11:57:31.053Z,99876.16
2019-01-04T12:00:04.398Z,99871.45
2019-01-04T12:02:36.473Z,99871.47
2019-01-04T12:05:09.936Z,99876.50
2019-01-04T12:07:41.959Z,99865.70
2019-01-04T12:10:13.980Z,99861.52
2019-01-04T12:12:46.010Z,99855.55
2019-01-04T12:15:18.012Z,99848.50
2019-01-04T12:17:50.060Z,99846.70
2019-01-04T12:20:22.808Z,99846.70
2019-01-04T12:22:54.845Z,99836.22
2019-01-04T12:25:26.802Z,99829.53
2019-01-04T12:27:58.805Z,99823.97
2019-01-04T12:30:30.811Z,99809.67
2019-01-04T12:33:03.315Z,99817.27
2019-01-04T12:35:35.379Z,99806.06
2019-01-04T12:38:07.357Z,99816.72
2019-01-04T12:40:39.467Z,99813.10
2019-01-04T12:43:11.468Z,99820.36
2019-01-04T12:45:44.636Z,99821.09
2019-01-04T12:48:16.671Z,99817.83
2019-01-04T12:50:48.670Z,99813.70
2019-01-04T12:53:20.693Z,99815.33
2019-01-04T12:55:52.711Z,99821.62
2019-01-04T12:58:24.733Z,99824.14
2019-01-04T13:00:56.746Z,99826.33
2019-01-04T13:03:28.765Z,99827.60
2019-01-04T13:06:00.817Z,99818.20
2019-01-04T13:08:32.831Z,99811.17
2019-01-04T13:11:04.853Z,99788.41
2019-01-04T13:13:37.670Z,99778.69
2019-01-04T13:16:09.664Z,99790.77
2019-01-04T13:18:41.714Z,99798.34
2019-01-04T13:21:13.958Z,99804.31
2019-01-04T13:23:47.273Z,99800.16
2019-01-04T13:26:29.946Z,99803.40
2019-01-04T13:29:01.948Z,99802.34
2019-01-04T13:31:33.979Z,99794.22
2019-01-04T13:34:05.991Z,99790.59
2019-01-04T13:36:38.041Z,99801.44
2019-01-04T13:39:13.781Z,99798.17
2019-01-04T13:41:45.891Z,99810.27
2019-01-04T13:44:17.900Z,99812.83
2019-01-04T13:46:49.931Z,99804.68
2019-01-04T13:49:21.910Z,99792.61
2019-01-04T13:51:53.921Z,99779.42
2019-01-04T13:54:27.459Z,99779.23
2019-01-04T13:56:59.540Z,99780.31
2019-01-04T13:59:31.612Z,99773.65
2019-01-04T14:02:03.644Z,99775.27
2019-01-04T14:04:35.640Z,99768.40
2019-01-04T14:07:08.127Z,99762.64
2019-01-04T14:09:40.163Z,99760.62
2019-01-04T14:12:12.215Z,99755.08
2019-01-04T14:14:44.200Z,99755.95
2019-01-04T14:17:17.405Z,99753.09
2019-01-04T14:19:50.207Z,99756.00
2019-01-04T14:22:22.306Z,99746.95
2019-01-04T14:24:54.303Z,99743.52
2019-01-04T14:27:26.350Z,99742.27
2019-01-04T14:29:58.391Z,99743.37
2019-01-04T14:32:30.433Z,99745.70
2019-01-04T14:35:02.453Z,99742.64
2019-01-04T14:37:34.449Z,99741.36
2019-01-04T14:40:07.915Z,99733.27
2019-01-04T14:42:39.954Z,99736.48
2019-01-04T14:45:12.040Z,99741.58
2019-01-04T14:47:44.070Z,99740.47
2019-01-04T14:50:16.152Z,99732.73
2019-01-04T14:52:48.149Z,99735.80
2019-01-04T14:55:20.246Z,99731.09
2019-01-04T14:57:52.273Z,99720.45
2019-01-04T15:00:24.300Z,99713.03
2019-01-04T15:02:56.288Z,99709.27
2019-01-04T15:05:28.321Z,99691.97
2019-01-04T15:08:00.333Z,99686.53
2019-01-04T15:10:32.368Z,99673.34
2019-01-04T15:13:08.492Z,99665.06
2019-01-04T15:15:40.501Z,99660.38
2019-01-04T15:18:12.628Z,99666.90
2019-01-04T15:20:44.618Z,99660.95
2019-01-04T15:23:16.653Z,99671.77
2019-01-04T15:25:48.703Z,99661.12
2019-01-04T15:28:20.722Z,99666.33
2019-01-04T15:30:53.865Z,99660.03
2019-01-04T15:33:25.898Z,99661.66
2019-01-04T15:35:57.983Z,99659.87
2019-01-04T15:38:36.057Z,99663.48
2019-01-04T15:41:04.025Z,99656.64
2019-01-04T15:43:36.312Z,99654.64
2019-01-04T15:46:08.355Z,99653.55
2019-01-04T15:48:40.392Z,99656.98
2019-01-04T15:51:12.396Z,99658.08
2019-01-04T15:53:44.426Z,99660.78
2019-01-04T15:56:16.456Z,99681.18
2019-01-04T15:58:51.115Z,99701.53
2019-01-04T16:01:23.176Z,99707.50
2019-01-04T16:03:55.178Z,99695.95
2019-01-04T16:06:27.217Z,99691.98
2019-01-04T16:08:59.214Z,99693.97
2019-01-04T16:11:31.264Z,99688.90
2019-01-04T16:14:03.253Z,99693.80
2019-01-04T16:16:35.334Z,99701.19
2019-01-04T16:19:07.422Z,99711.11
2019-01-04T16:21:39.414Z,99714.69
2019-01-04T16:24:11.432Z,99727.16
2019-01-04T16:26:43.435Z,99733.83
2019-01-04T16:29:15.501Z,99736.88
2019-01-04T16:31:47.536Z,99727.52
2019-01-04T16:34:19.593Z,99722.09
2019-01-04T16:36:51.669Z,99711.47
2019-01-04T16:39:23.716Z,99688.55
2019-01-04T16:41:55.732Z,99676.09
2019-01-04T16:44:31.303Z,99672.86
2019-01-04T16:47:03.335Z,99690.89
2019-01-04T16:49:54.914Z,99684.59
2019-01-04T16:52:28.685Z,99671.06
2019-01-04T16:55:00.755Z,99668.17
2019-01-04T16:57:32.800Z,99668.72
2019-01-04T17:00:46.179Z,99676.83
2019-01-04T17:03:18.217Z,99691.11
2019-01-04T17:08:41.880Z,99693.06
2019-01-04T17:11:13.934Z,99681.53
2019-01-04T17:16:37.551Z,99704.25
2019-01-04T17:19:09.638Z,99702.83
2019-01-04T17:21:41.664Z,99705.86
2019-01-04T17:24:13.679Z,99711.48
2019-01-04T17:26:45.695Z,99722.45
2019-01-04T17:29:17.701Z,99729.84
2019-01-04T17:31:49.731Z,99733.83
2019-01-04T17:34:21.774Z,99727.70
2019-01-04T17:36:53.853Z,99721.02
2019-01-04T17:39:25.855Z,99705.14
2019-01-04T17:41:57.894Z,99686.56
2019-01-04T17:44:29.963Z,99671.41
2019-01-04T17:47:18.846Z,99670.32
2019-01-04T17:49:50.867Z,99670.67
2019-01-04T17:52:22.914Z,99672.86
2019-01-04T17:54:54.910Z,99671.61
2019-01-04T17:57:26.948Z,99663.33
2019-01-04T17:59:58.978Z,99659.54
2019-01-04T18:02:31.004Z,99670.70
2019-01-04T18:05:03.084Z,99678.47
2019-01-04T18:07:35.126Z,99677.00
2019-01-04T18:10:07.806Z,99680.28
2019-01-04T18:12:39.875Z,99695.05
2019-01-04T18:15:11.902Z,99686.59
2019-01-04T18:17:44.529Z,99679.91
2019-01-04T18:20:16.664Z,99675.03
2019-01-04T18:22:48.719Z,99676.12
2019-01-04T18:25:20.822Z,99676.67
2019-01-04T18:27:52.869Z,99669.61
2019-01-04T18:30:24.939Z,99668.00
2019-01-04T18:32:56.995Z,99667.27
2019-01-04T18:35:29.026Z,99667.66
2019-01-04T18:38:01.079Z,99673.80
2019-01-04T18:43:24.806Z,99664.05
2019-01-04T18:45:56.872Z,99667.66
2019-01-04T18:48:28.947Z,99663.16
2019-01-04T18:51:01.001Z,99661.02
2019-01-04T18:53:33.099Z,99660.08
2019-01-04T18:56:05.148Z,99651.62
2019-01-04T18:58:37.212Z,99651.97
2019-01-04T19:01:13.679Z,99646.04
2019-01-04T19:03:43.212Z,99652.34
2019-01-04T19:06:15.253Z,99641.72
2019-01-04T19:08:47.361Z,99641.89
2019-01-04T19:11:19.413Z,99642.80
2019-01-04T19:13:51.457Z,99633.05
2019-01-04T19:16:23.508Z,99642.61
2019-01-04T19:18:55.548Z,99651.44
2019-01-04T19:21:28.684Z,99647.13
2019-01-04T19:24:00.697Z,99648.39
2019-01-04T19:26:32.762Z,99642.98
2019-01-04T19:29:04.804Z,99633.63
2019-01-04T19:31:36.883Z,99631.45
2019-01-04T19:34:08.998Z,99622.44
2019-01-04T19:36:41.057Z,99620.99
2019-01-04T19:39:13.117Z,99609.11
2019-01-04T19:41:45.165Z,99604.94
2019-01-04T19:44:17.229Z,99605.52
2019-01-04T19:46:49.282Z,99604.41
2019-01-04T19:49:21.301Z,99612.69
2019-01-04T19:51:53.369Z,99611.44
2019-01-04T19:54:25.404Z,99612.33
2019-01-04T19:56:58.506Z,99609.11
2019-01-04T19:59:32.960Z,99611.63
2019-01-04T20:02:05.052Z,99612.69
2019-01-04T20:04:37.095Z,99617.20
2019-01-04T20:08:26.558Z,99615.77
2019-01-04T20:12:06.115Z,99612.88
2019-01-04T20:15:44.969Z,99625.14
2019-01-04T20:18:52.352Z,99621.19
2019-01-04T20:21:42.679Z,99612.16
2019-01-04T20:24:34.288Z,99616.14
2019-01-04T20:27:23.651Z,99613.41
2019-01-04T20:30:14.197Z,99612.88
2019-01-04T20:33:14.994Z,99619.36
2019-01-04T20:36:05.496Z,99618.13
2019-01-04T20:38:56.332Z,99617.03
2019-01-04T20:41:46.921Z,99614.52
2019-01-04T20:44:37.555Z,99615.58
2019-01-04T20:47:33.266Z,99615.95
2019-01-04T20:50:30.784Z,99623.16
2019-01-04T20:53:21.135Z,99624.59
2019-01-04T20:56:11.692Z,99631.97
2019-01-04T20:59:05.726Z,99639.53
2019-01-04T21:02:00.361Z,99632.69
2019-01-04T21:04:50.836Z,99640.80
2019-01-04T21:07:52.078Z,99640.99
2019-01-04T21:10:53.000Z,99640.06
2019-01-04T21:13:44.312Z,99642.39
2019-01-04T21:16:34.340Z,99641.52
2019-01-04T21:19:19.795Z,99646.20
2019-01-04T21:22:17.642Z,99650.16
2019-01-04T21:25:27.680Z,99644.05
2019-01-04T21:28:17.890Z,99638.63
2019-01-04T21:31:12.578Z,99639.72
2019-01-04T21:34:03.109Z,99648.91
2019-01-04T21:37:00.771Z,99652.33
2019-01-04T21:39:52.488Z,99647.29
2019-01-04T21:42:47.090Z,99648.55
2019-01-04T21:45:56.945Z,99643.13
2019-01-04T21:49:03.716Z,99645.31
2019-01-04T21:51:55.354Z,99647.28
2019-01-04T21:54:50.017Z,99651.61
2019-01-04T21:57:46.822Z,99651.98
2019-01-04T22:00:41.434Z,99649.81
2019-01-04T22:03:48.467Z,99651.78
2019-01-04T22:06:38.687Z,99661.70
2019-01-04T22:09:48.556Z,99657.73
2019-01-04T22:12:39.033Z,99652.16
2019-01-04T22:15:34.601Z,99651.98
2019-01-04T22:18:32.474Z,99644.61
2019-01-04T22:21:22.632Z,99645.88
2019-01-04T22:24:09.226Z,99638.30
2019-01-04T22:27:09.931Z,99637.94
2019-01-04T22:30:10.509Z,99638.65
2019-01-04T22:33:00.896Z,99635.23
2019-01-04T22:35:51.595Z,99632.88
2019-01-04T22:39:01.641Z,99627.30
2019-01-04T22:42:05.200Z,99637.22
2019-01-04T22:45:08.989Z,99629.63
2019-01-04T22:48:09.680Z,99630.37
2019-01-04T22:51:07.162Z,99629.81
2019-01-04T22:53:57.322Z,99632.89
2019-01-04T22:56:44.319Z,99635.05
2019-01-04T22:59:34.639Z,99630.02
2019-01-04T23:02:41.549Z,99627.84
2019-01-04T23:05:32.226Z,99629.64
2019-01-04T23:08:20.399Z,99636.47
2019-01-04T23:11:10.825Z,99628.37
2019-01-04T23:14:08.255Z,99626.95
2019-01-04T23:17:18.260Z,99617.93
2019-01-04T23:20:19.356Z,99614.87
2019-01-04T23:23:09.698Z,99620.46
2019-01-04T23:25:59.983Z,99614.34
2019-01-04T23:28:50.517Z,99611.45
2019-01-04T23:31:44.640Z,99614.69
2019-01-04T23:34:36.252Z,99613.59
2019-01-04T23:37:43.248Z,99601.17
2019-01-04T23:40:53.186Z,99596.11
2019-01-04T23:43:43.476Z,99592.89
2019-01-04T23:46:40.886Z,99588.74
2019-01-04T23:49:35.474Z,99591.78
2019-01-04T23:52:25.769Z,99590.91
2019-01-04T23:55:16.415Z,99586.58
2019-01-04T23:58:07.116Z,99588.20
